Time;durP1;ratioP1;P1;durP2;ratioP2;P2;SDS_P1;SDS_P2;PMS_P1;PMS_P2;Temp;Humidity;BMP_temperature;BMP_pressure;BME280_temperature;BME280_humidity;BME280_pressure;Samples;Min_cycle;Max_cycle;Signal;HPM_P1;HPM_P2
2021/10/26 00:02:11;;;;;;;61.55;18.48;;;;;;;10.17;93.38;100061.22;5104459;28;20020;-70
2021/10/26 00:04:37;;;;;;;52.55;19.08;;;;;;;10.19;93.27;100062.06;5104733;28;20016;-70
2021/10/26 00:07:03;;;;;;;39.25;15.23;;;;;;;10.16;93.75;100054.28;5086184;28;20522;-72
2021/10/26 00:09:28;;;;;;;48.50;17.55;;;;;;;10.14;93.69;100048.28;5104857;28;20031;-69
2021/10/26 00:11:54;;;;;;;41.40;14.63;;;;;;;10.15;93.91;100057.78;5104469;28;20024;-69
2021/10/26 00:14:20;;;;;;;57.85;19.67;;;;;;;10.14;93.94;100064.69;5104437;28;20032;-70
2021/10/26 00:16:46;;;;;;;58.05;19.60;;;;;;;10.19;93.79;100051.69;5104410;28;20471;-71
2021/10/26 00:19:11;;;;;;;46.60;14.90;;;;;;;10.16;94.20;100051.69;5104283;28;20072;-69
2021/10/26 00:21:37;;;;;;;55.20;22.20;;;;;;;10.19;94.20;100064.66;5104130;28;20024;-68
2021/10/26 00:24:03;;;;;;;75.40;21.33;;;;;;;10.24;94.07;100059.41;5103979;28;20040;-68
2021/10/26 00:26:29;;;;;;;57.72;19.27;;;;;;;10.23;93.96;100060.28;5085256;28;20024;-67
2021/10/26 00:28:56;;;;;;;51.88;18.63;;;;;;;10.26;94.05;100055.03;5103897;28;20043;-68
2021/10/26 00:31:21;;;;;;;51.67;20.20;;;;;;;10.26;94.00;100060.22;5104150;28;20458;-68
2021/10/26 00:33:47;;;;;;;40.40;14.73;;;;;;;10.14;94.21;100041.34;5103981;28;20034;-69
2021/10/26 00:36:12;;;;;;;47.92;18.05;;;;;;;10.23;94.05;100049.91;5103989;28;20024;-69
2021/10/26 00:38:38;;;;;;;39.67;15.93;;;;;;;10.25;94.01;100050.75;5103989;28;20020;-69
2021/10/26 00:41:04;;;;;;;53.47;18.83;;;;;;;10.22;94.25;100049.06;5103269;28;20047;-69
2021/10/26 00:43:30;;;;;;;59.20;19.25;;;;;;;10.27;94.23;100055.03;5103717;28;20016;-69
2021/10/26 00:45:56;;;;;;;53.33;19.35;;;;;;;10.26;94.00;100048.13;5103933;28;20024;-70
2021/10/26 00:48:21;;;;;;;50.25;17.40;;;;;;;10.32;93.83;100052.38;5103380;28;20028;-70
2021/10/26 00:50:46;;;;;;;56.58;19.33;;;;;;;10.25;94.22;100046.41;5103378;28;20020;-69
2021/10/26 00:53:16;;;;;;;55.45;18.60;;;;;;;10.26;94.14;100053.31;5103517;28;20038;-70
2021/10/26 00:55:42;;;;;;;54.08;19.90;;;;;;;10.28;94.11;100054.16;5103398;28;20020;-69
2021/10/26 00:58:07;;;;;;;58.42;20.52;;;;;;;10.27;94.19;100047.25;5103694;28;20503;-70
2021/10/26 01:00:32;;;;;;;44.85;16.27;;;;;;;10.34;94.09;100044.56;5103494;28;20036;-70
2021/10/26 01:02:58;;;;;;;43.78;18.23;;;;;;;10.29;94.01;100048.09;5103474;28;20039;-70
2021/10/26 01:05:23;;;;;;;47.78;17.10;;;;;;;10.33;94.30;100046.31;5103474;28;20027;-69
2021/10/26 01:07:49;;;;;;;65.72;19.02;;;;;;;10.33;94.14;100048.91;5103732;28;20016;-72
2021/10/26 01:10:15;;;;;;;62.75;21.17;;;;;;;10.36;94.21;100048.88;5103206;28;20020;-71
2021/10/26 01:12:40;;;;;;;41.83;17.98;;;;;;;10.31;94.29;100040.28;5103462;28;20024;-71
2021/10/26 01:15:06;;;;;;;57.10;17.48;;;;;;;10.34;94.17;100040.25;5103373;28;20024;-71
2021/10/26 01:17:32;;;;;;;47.72;18.67;;;;;;;10.33;94.19;100030.75;5103541;28;20055;-72
2021/10/26 01:19:58;;;;;;;57.60;15.75;;;;;;;10.38;94.12;100036.72;5103175;28;20081;-72
2021/10/26 01:22:28;;;;;;;50.72;18.48;;;;;;;10.34;94.14;100029.00;5103485;28;20028;-71
2021/10/26 01:24:55;;;;;;;54.95;18.00;;;;;;;10.36;94.43;100030.72;5102817;28;20051;-72
2021/10/26 01:27:22;;;;;;;64.43;20.73;;;;;;;10.27;94.19;100017.88;5103277;28;20047;-72
2021/10/26 01:29:48;;;;;;;53.40;20.02;;;;;;;10.35;94.37;100026.38;5085360;28;20042;-72
2021/10/26 01:32:15;;;;;;;54.50;18.23;;;;;;;10.36;94.56;100033.31;5103288;28;20218;-71
2021/10/26 01:34:41;;;;;;;54.72;20.05;;;;;;;10.43;94.28;100028.03;5103288;28;20055;-71
2021/10/26 01:37:08;;;;;;;49.35;18.02;;;;;;;10.37;94.54;100019.44;5103286;28;20024;-71
2021/10/26 01:39:41;;;;;;;46.67;17.50;;;;;;;10.40;94.46;100022.00;5102521;28;20028;-73
2021/10/26 01:42:09;;;;;;;73.35;20.83;;;;;;;10.42;94.50;100021.97;5103250;28;20080;-73
2021/10/26 01:44:36;;;;;;;46.78;17.23;;;;;;;10.46;94.48;100017.59;5103469;28;20028;-72
2021/10/26 01:47:02;;;;;;;53.17;18.38;;;;;;;10.43;94.36;100009.84;5103235;28;20031;-72
2021/10/26 01:49:27;;;;;;;57.40;19.63;;;;;;;10.47;94.31;100015.00;5103293;28;20020;-73
2021/10/26 01:51:53;;;;;;;56.75;19.67;;;;;;;10.43;94.56;100005.53;5103091;28;20024;-73
2021/10/26 01:54:19;;;;;;;60.13;20.02;;;;;;;10.46;94.35;100008.13;5102842;28;20024;-73
2021/10/26 01:56:46;;;;;;;64.32;21.48;;;;;;;10.51;94.58;100014.06;5103058;28;20026;-72
2021/10/26 01:59:12;;;;;;;68.57;22.40;;;;;;;10.56;94.17;100014.00;5102750;28;20035;-72
2021/10/26 02:01:37;;;;;;;58.65;22.17;;;;;;;10.55;94.18;100022.69;5102944;28;20051;-71
2021/10/26 02:04:04;;;;;;;61.85;20.88;;;;;;;10.53;94.58;100008.88;5102904;28;20107;-71
2021/10/26 02:06:29;;;;;;;51.70;19.92;;;;;;;10.53;94.55;100003.66;5102814;28;20031;-71
2021/10/26 02:08:55;;;;;;;57.47;20.38;;;;;;;10.57;94.63;100009.69;5084577;28;20027;-72
2021/10/26 02:11:21;;;;;;;51.35;20.60;;;;;;;10.49;94.64;99997.69;5102828;28;20133;-71
2021/10/26 02:13:46;;;;;;;67.85;20.88;;;;;;;10.56;94.57;100008.81;5103616;28;20020;-71
2021/10/26 02:16:12;;;;;;;65.28;22.00;;;;;;;10.61;94.62;100008.75;5106450;28;20028;-70
2021/10/26 02:18:37;;;;;;;63.67;21.23;;;;;;;10.60;94.49;100007.91;5106349;28;20039;-72
2021/10/26 02:21:03;;;;;;;49.08;18.70;;;;;;;10.62;94.41;100005.28;5106664;28;20024;-70
2021/10/26 02:23:29;;;;;;;47.35;18.52;;;;;;;10.66;93.92;99996.56;5106349;28;20032;-70
2021/10/26 02:25:54;;;;;;;52.00;19.35;;;;;;;10.66;94.06;100006.94;5106051;28;20040;-70
2021/10/26 02:28:20;;;;;;;54.30;17.58;;;;;;;10.62;93.88;100002.69;5106499;28;20038;-69
2021/10/26 02:30:45;;;;;;;43.20;16.92;;;;;;;10.61;93.92;100006.16;5104694;28;20099;-70
2021/10/26 02:33:11;;;;;;;55.75;17.48;;;;;;;10.58;94.05;99996.69;5106427;28;20144;-69
2021/10/26 02:35:38;;;;;;;66.60;18.88;;;;;;;10.58;94.14;100003.59;5105163;28;20031;-69
2021/10/26 02:38:04;;;;;;;45.75;16.92;;;;;;;10.56;94.30;100006.22;5105791;28;20108;-69
2021/10/26 02:40:29;;;;;;;51.67;16.38;;;;;;;10.55;94.10;100009.72;5105883;28;20024;-68
2021/10/26 02:42:55;;;;;;;49.08;17.17;;;;;;;10.51;93.96;100000.25;5106235;28;20051;-68
2021/10/26 02:45:22;;;;;;;47.63;18.33;;;;;;;10.57;94.29;100004.50;5105811;28;20107;-69
2021/10/26 02:47:47;;;;;;;47.60;18.00;;;;;;;10.60;94.21;100007.03;5105901;28;20035;-69
2021/10/26 02:50:14;;;;;;;57.58;18.35;;;;;;;10.63;94.28;100010.47;5105479;28;20012;-69
2021/10/26 02:52:39;;;;;;;48.40;17.55;;;;;;;10.59;93.97;100008.78;5087944;28;20027;-69
2021/10/26 02:55:05;;;;;;;62.38;18.17;;;;;;;10.57;93.64;100005.38;5105720;28;20027;-68
2021/10/26 02:57:31;;;;;;;46.85;15.65;;;;;;;10.54;93.55;100001.06;5105821;28;20043;-68
2021/10/26 02:59:57;;;;;;;44.83;15.30;;;;;;;10.49;93.80;99996.81;5105991;28;20051;-68
2021/10/26 03:02:23;;;;;;;43.92;15.93;;;;;;;10.46;93.66;99996.84;5105854;28;20019;-69
2021/10/26 03:04:49;;;;;;;43.30;15.80;;;;;;;10.44;93.37;99991.66;5105983;28;20035;-69
2021/10/26 03:07:14;;;;;;;49.08;16.42;;;;;;;10.34;93.12;99993.53;5105946;28;20024;-69
2021/10/26 03:09:40;;;;;;;31.35;13.02;;;;;;;10.21;93.13;99992.00;5105682;28;20024;-70
2021/10/26 03:12:05;;;;;;;33.47;13.35;;;;;;;10.15;93.25;99993.78;5105539;28;20393;-69
2021/10/26 03:14:31;;;;;;;32.75;11.90;;;;;;;10.06;93.32;99987.88;5105703;28;20023;-69
2021/10/26 03:16:56;;;;;;;35.75;12.60;;;;;;;9.98;93.21;99990.56;5105453;28;20104;-70
2021/10/26 03:19:22;;;;;;;36.60;13.95;;;;;;;9.91;93.16;99990.63;5105397;28;20084;-70
2021/10/26 03:21:47;;;;;;;38.42;15.07;;;;;;;9.88;92.97;99985.50;5105522;28;20074;-71
2021/10/26 03:24:13;;;;;;;37.10;14.93;;;;;;;9.82;93.22;99990.75;5104947;28;20048;-71
2021/10/26 03:26:38;;;;;;;52.97;15.82;;;;;;;9.77;93.32;99988.22;5105554;28;20057;-71
2021/10/26 03:29:04;;;;;;;51.25;17.30;;;;;;;9.75;93.47;99991.69;5105501;28;20507;-71
2021/10/26 03:31:29;;;;;;;50.10;17.27;;;;;;;9.79;93.20;99990.78;5105384;28;20483;-71
2021/10/26 03:33:55;;;;;;;52.55;18.90;;;;;;;9.76;93.71;99989.06;5105243;28;20038;-71
2021/10/26 03:36:20;;;;;;;57.28;20.65;;;;;;;9.78;93.85;99995.09;5105313;28;20515;-72
2021/10/26 03:38:47;;;;;;;51.33;18.08;;;;;;;9.84;94.03;99988.97;5105053;28;20032;-72
2021/10/26 03:41:12;;;;;;;56.53;18.55;;;;;;;9.83;94.09;99986.41;5105177;28;20027;-72
2021/10/26 03:43:38;;;;;;;59.83;18.77;;;;;;;9.92;94.19;99984.56;5105181;28;20024;-72
2021/10/26 03:46:03;;;;;;;49.97;18.38;;;;;;;9.94;93.89;99975.91;5085472;28;20089;-73
2021/10/26 03:48:28;;;;;;;51.38;19.35;;;;;;;9.92;93.99;99966.41;5105198;28;20030;-72
2021/10/26 03:50:54;;;;;;;50.88;19.15;;;;;;;10.03;94.03;99973.22;5104817;28;20027;-73
2021/10/26 03:53:19;;;;;;;47.47;19.83;;;;;;;10.04;94.19;99964.53;5104839;28;20577;-73
2021/10/26 03:55:45;;;;;;;54.50;19.55;;;;;;;10.03;94.29;99975.81;5104752;28;20030;-72
2021/10/26 03:58:10;;;;;;;55.03;18.70;;;;;;;10.12;94.32;99982.59;5104863;28;20028;-73
2021/10/26 04:00:36;;;;;;;64.53;20.15;;;;;;;10.16;94.14;99979.06;5104721;28;20024;-72
2021/10/26 04:03:03;;;;;;;49.85;17.65;;;;;;;10.18;94.20;99972.13;5104660;28;20195;-73
2021/10/26 04:08:18;;;;;;;59.55;18.25;;;;;;;10.24;94.13;99963.44;5104664;28;20031;-73
2021/10/26 04:10:48;;;;;;;50.10;16.65;;;;;;;10.31;93.90;99980.59;5103580;28;20046;-72
2021/10/26 04:13:13;;;;;;;46.38;18.10;;;;;;;10.29;94.12;99975.44;5104455;28;20074;-72
2021/10/26 04:15:39;;;;;;;41.25;14.50;;;;;;;10.35;93.76;99974.47;5104346;28;20356;-72
2021/10/26 04:18:04;;;;;;;36.33;14.00;;;;;;;10.32;93.71;99964.16;5104091;28;20170;-70
2021/10/26 04:20:30;;;;;;;41.38;14.82;;;;;;;10.31;93.72;99962.44;5103737;28;20077;-70
2021/10/26 04:22:55;;;;;;;40.70;13.40;;;;;;;10.32;93.90;99966.75;5104077;28;20020;-71
2021/10/26 04:25:21;;;;;;;33.60;14.23;;;;;;;10.33;93.70;99965.00;5084860;28;20515;-70
2021/10/26 04:27:46;;;;;;;43.30;14.52;;;;;;;10.32;93.58;99964.16;5103748;28;20023;-70
2021/10/26 04:30:11;;;;;;;34.28;13.23;;;;;;;10.33;93.69;99963.28;5103686;28;20024;-70
2021/10/26 04:32:37;;;;;;;40.75;11.73;;;;;;;10.33;93.52;99960.69;5103513;28;20051;-71
2021/10/26 04:35:03;;;;;;;33.70;12.88;;;;;;;10.34;93.59;99959.81;5103233;28;20106;-70
2021/10/26 04:37:29;;;;;;;38.35;12.32;;;;;;;10.34;93.82;99962.41;5102920;28;20024;-70
2021/10/26 04:39:54;;;;;;;33.72;12.35;;;;;;;10.35;93.62;99951.13;5103425;28;20024;-69
2021/10/26 04:42:20;;;;;;;39.40;14.48;;;;;;;10.41;93.35;99953.63;5103786;28;20027;-68
2021/10/26 04:44:46;;;;;;;40.55;14.30;;;;;;;10.38;93.53;99951.06;5103511;28;20016;-69
2021/10/26 04:47:11;;;;;;;36.85;12.00;;;;;;;10.43;93.54;99960.56;5103405;28;20045;-69
2021/10/26 04:49:36;;;;;;;45.38;16.20;;;;;;;10.42;93.47;99954.50;5103470;28;20043;-70
2021/10/26 04:52:02;;;;;;;38.92;12.63;;;;;;;10.45;93.37;99958.81;5103408;28;20069;-70
2021/10/26 04:54:28;;;;;;;28.35;12.93;;;;;;;10.41;93.31;99958.81;5103131;28;20028;-71
2021/10/26 04:56:53;;;;;;;37.75;13.13;;;;;;;10.38;93.54;99953.66;5103364;28;20024;-70
2021/10/26 04:59:19;;;;;;;34.25;10.77;;;;;;;10.37;93.29;99951.97;5103345;28;20075;-71
2021/10/26 05:01:44;;;;;;;30.13;10.65;;;;;;;10.34;93.44;99961.53;5103278;28;20126;-70
2021/10/26 05:04:10;;;;;;;33.40;11.30;;;;;;;10.35;93.38;99968.44;5102957;28;20095;-71
2021/10/26 05:06:35;;;;;;;33.60;10.63;;;;;;;10.35;93.27;99968.44;5102978;28;20512;-71
2021/10/26 05:09:02;;;;;;;34.97;12.38;;;;;;;10.36;93.40;99965.84;5102910;28;20061;-72
2021/10/26 05:11:28;;;;;;;47.92;12.50;;;;;;;10.29;93.33;99964.19;5102889;28;20019;-72
2021/10/26 05:13:53;;;;;;;31.15;11.05;;;;;;;10.33;93.36;99960.69;5103111;28;20024;-71
2021/10/26 05:16:19;;;;;;;20.55;8.52;;;;;;;10.28;93.20;99963.34;5102037;28;20447;-72
2021/10/26 05:18:49;;;;;;;33.15;8.43;;;;;;;10.25;93.03;99967.72;5102738;28;20027;-71
2021/10/26 05:21:20;;;;;;;18.58;7.90;;;;;;;10.20;92.71;99974.69;5083845;28;20055;-67
2021/10/26 05:23:47;;;;;;;26.97;8.63;;;;;;;10.14;nan;99975.66;5102656;28;20490;-71
2021/10/26 05:26:13;;;;;;;18.60;7.07;;;;;;;10.07;92.52;99980.06;5102367;28;20294;-68
2021/10/26 05:28:39;;;;;;;17.08;6.90;;;;;;;10.04;92.44;99982.69;5103000;28;20024;-68
2021/10/26 05:31:05;;;;;;;18.67;6.45;;;;;;;9.95;92.66;99980.22;5103416;28;20020;-68
2021/10/26 05:33:31;;;;;;;12.57;5.30;;;;;;;9.88;92.17;99985.50;5103524;28;20470;-68
2021/10/26 05:35:56;;;;;;;15.13;5.00;;;;;;;9.84;92.30;99988.16;5103227;28;20032;-68
2021/10/26 05:38:21;;;;;;;12.90;4.93;;;;;;;9.81;92.27;99988.19;5103169;28;20529;-72
2021/10/26 05:40:47;;;;;;;13.30;4.88;;;;;;;9.79;92.20;99990.78;5102992;28;20016;-74
2021/10/26 05:43:12;;;;;;;18.27;4.50;;;;;;;9.70;92.19;99983.09;5118772;28;20043;-73
2021/10/26 05:45:44;;;;;;;14.90;4.40;;;;;;;9.73;92.04;99986.53;5103486;28;20027;-72
2021/10/26 05:48:10;;;;;;;13.80;3.72;;;;;;;9.68;92.24;99985.72;5103464;28;20097;-72
2021/10/26 05:50:35;;;;;;;12.57;3.53;;;;;;;9.67;92.23;100000.41;5107261;28;20028;-73
2021/10/26 05:53:01;;;;;;;11.60;3.78;;;;;;;9.68;91.74;99996.06;5107329;28;20028;-73
2021/10/26 05:55:26;;;;;;;17.77;3.95;;;;;;;9.66;92.02;99995.25;5088830;28;20020;-72
2021/10/26 05:57:51;;;;;;;13.38;4.18;;;;;;;9.65;91.84;99991.78;5107375;28;20024;-73
2021/10/26 06:00:17;;;;;;;16.98;4.82;;;;;;;9.63;91.70;99990.09;5107033;28;20101;-73
2021/10/26 06:02:42;;;;;;;17.85;4.38;;;;;;;9.62;91.95;99991.84;5107121;28;20046;-72
2021/10/26 06:05:10;;;;;;;14.52;3.50;;;;;;;9.60;91.89;99985.81;5106871;28;20058;-72
2021/10/26 06:07:36;;;;;;;21.10;4.82;;;;;;;9.58;92.04;99990.16;5122918;28;20024;-73
2021/10/26 06:10:01;;;;;;;12.05;4.15;;;;;;;9.57;91.81;99990.19;5107022;28;20088;-71
2021/10/26 06:12:30;;;;;;;22.50;4.70;;;;;;;9.61;91.80;100000.50;5122687;28;20083;-73
2021/10/26 06:14:55;;;;;;;19.67;4.32;;;;;;;9.61;91.99;100007.41;5106967;28;20085;-73
2021/10/26 06:17:21;;;;;;;18.60;4.57;;;;;;;9.59;91.96;100007.41;5106935;28;20629;-73
2021/10/26 06:19:46;;;;;;;15.32;3.88;;;;;;;9.54;91.94;100001.41;5106712;28;20103;-73
2021/10/26 06:22:12;;;;;;;20.02;5.05;;;;;;;9.59;91.84;99997.06;5106729;28;20024;-73
2021/10/26 06:24:37;;;;;;;12.10;4.25;;;;;;;9.60;91.92;100003.94;5106574;28;20040;-72
2021/10/26 06:27:02;;;;;;;20.08;5.97;;;;;;;9.59;92.30;99999.66;5107121;28;20016;-73
2021/10/26 06:29:28;;;;;;;22.27;4.35;;;;;;;9.64;92.05;100000.47;5106801;28;20016;-72
2021/10/26 06:31:53;;;;;;;16.42;4.32;;;;;;;9.62;92.44;100004.78;5088489;28;20479;-73
2021/10/26 06:34:18;;;;;;;20.90;4.82;;;;;;;9.67;92.30;100010.78;5088355;28;20024;-73
2021/10/26 06:36:44;;;;;;;23.08;4.60;;;;;;;9.70;92.17;100006.44;5106410;28;20020;-73
2021/10/26 06:39:09;;;;;;;17.95;4.10;;;;;;;9.73;92.32;100006.41;5106361;28;20032;-73
2021/10/26 06:41:34;;;;;;;19.40;4.65;;;;;;;9.74;92.27;100010.72;5106012;28;20095;-73
2021/10/26 06:44:01;;;;;;;22.35;4.78;;;;;;;9.77;92.31;100008.09;5106324;28;20066;-74
2021/10/26 06:46:27;;;;;;;23.50;4.78;;;;;;;9.78;92.12;100010.66;5106384;28;20115;-73
2021/10/26 06:48:52;;;;;;;16.33;3.95;;;;;;;9.81;92.16;100014.94;5106341;28;20440;-73
2021/10/26 06:51:17;;;;;;;16.52;3.88;;;;;;;9.84;92.01;100011.47;5106026;28;20020;-73
2021/10/26 06:53:43;;;;;;;19.65;4.22;;;;;;;9.85;92.04;100019.25;5106253;28;20380;-73
2021/10/26 06:56:17;;;;;;;13.73;3.65;;;;;;;9.86;92.04;100026.13;5105865;28;20519;-72
2021/10/26 06:58:43;;;;;;;13.68;4.53;;;;;;;9.88;91.84;100029.56;5106331;28;20498;-72
2021/10/26 07:01:11;;;;;;;25.17;4.18;;;;;;;9.87;91.67;100027.00;5105511;28;20027;-73
2021/10/26 07:03:37;;;;;;;14.15;3.60;;;;;;;9.84;91.67;100038.25;5106074;28;20066;-72
2021/10/26 07:06:03;;;;;;;11.85;3.75;;;;;;;9.86;91.27;100038.22;5105840;28;20020;-72
2021/10/26 07:08:30;;;;;;;13.25;3.63;;;;;;;9.88;91.32;100047.72;5105907;28;20043;-73
2021/10/26 07:10:57;;;;;;;18.67;4.07;;;;;;;9.92;91.36;100049.38;5105392;28;20538;-72
2021/10/26 07:13:22;;;;;;;19.38;3.72;;;;;;;9.96;91.03;100041.56;5105735;28;20098;-72
2021/10/26 07:15:48;;;;;;;14.18;3.80;;;;;;;9.95;91.31;100050.25;5105559;28;20036;-71
2021/10/26 07:18:14;;;;;;;20.38;4.32;;;;;;;9.95;91.41;100052.84;5105608;28;20047;-73
2021/10/26 07:20:39;;;;;;;17.73;4.00;;;;;;;9.92;90.89;100041.63;5105148;28;20108;-72
2021/10/26 07:23:05;;;;;;;21.55;5.47;;;;;;;9.92;90.86;100046.78;5105620;28;20016;-73
2021/10/26 07:25:30;;;;;;;19.30;4.35;;;;;;;10.00;90.99;100048.47;5105061;28;20040;-71
2021/10/26 07:27:59;;;;;;;16.95;3.83;;;;;;;10.03;91.27;100051.03;5105352;28;20379;-73
2021/10/26 07:30:28;;;;;;;18.20;4.22;;;;;;;10.04;91.00;100058.78;5121009;28;20012;-73
2021/10/26 07:32:57;;;;;;;20.70;4.75;;;;;;;10.06;90.94;100063.06;5105437;28;20024;-74
2021/10/26 07:35:28;;;;;;;26.67;4.20;;;;;;;10.04;91.05;100066.56;5105169;28;20019;-71
2021/10/26 07:37:54;;;;;;;18.35;4.15;;;;;;;10.05;91.01;100072.59;5105164;28;20024;-73
2021/10/26 07:40:19;;;;;;;17.35;4.22;;;;;;;10.06;90.87;100070.84;5104982;28;20482;-72
2021/10/26 07:42:45;;;;;;;24.38;4.18;;;;;;;10.01;90.88;100061.41;5104953;28;20081;-73
2021/10/26 07:45:11;;;;;;;18.15;3.85;;;;;;;10.08;90.91;100064.75;5105040;28;20301;-71
2021/10/26 07:47:37;;;;;;;18.55;4.15;;;;;;;10.14;91.23;100075.06;5104881;28;20024;-72
2021/10/26 07:50:04;;;;;;;17.63;4.10;;;;;;;10.22;91.03;100072.41;5104916;28;20094;-72
2021/10/26 07:52:29;;;;;;;21.70;3.80;;;;;;;10.20;90.64;100063.78;5105036;28;20023;-72
2021/10/26 07:54:55;;;;;;;23.67;4.20;;;;;;;10.25;90.54;100076.69;5105031;28;20491;-72
2021/10/26 07:57:25;;;;;;;12.73;3.70;;;;;;;10.43;90.62;100074.75;5104973;28;20031;-72
2021/10/26 07:59:52;;;;;;;15.50;4.80;;;;;;;10.66;90.53;100077.03;5105006;28;20035;-72
2021/10/26 08:02:19;;;;;;;14.93;3.15;;;;;;;10.81;88.67;100055.19;5105011;28;20049;-72
2021/10/26 08:04:45;;;;;;;9.82;3.42;;;;;;;11.10;87.58;100076.41;5104704;28;20024;-71
2021/10/26 08:07:11;;;;;;;13.70;3.15;;;;;;;11.30;87.52;100080.41;5120416;28;20057;-71
2021/10/26 08:09:37;;;;;;;15.68;2.85;;;;;;;11.43;86.23;100079.31;5104423;28;20020;-71
2021/10/26 08:12:03;;;;;;;17.75;3.22;;;;;;;11.76;85.89;100071.78;5103931;28;20063;-71
2021/10/26 08:14:29;;;;;;;11.02;2.65;;;;;;;12.44;83.72;100073.09;5104573;28;20027;-71
2021/10/26 08:16:54;;;;;;;11.85;2.42;;;;;;;13.05;81.54;100075.19;5104502;28;20030;-71
2021/10/26 08:19:20;;;;;;;8.82;2.17;;;;;;;13.62;79.53;100077.28;5104516;28;20027;-71
2021/10/26 08:21:47;;;;;;;12.07;2.40;;;;;;;13.90;77.65;100079.16;5120292;28;20466;-72
2021/10/26 08:24:12;;;;;;;9.07;1.95;;;;;;;14.27;75.49;100081.59;5120134;28;20040;-73
2021/10/26 08:26:45;;;;;;;8.30;1.85;;;;;;;14.68;73.22;100086.50;5104428;28;20018;-71
2021/10/26 08:29:16;;;;;;;10.73;2.20;;;;;;;15.18;72.53;100075.38;5104350;28;20023;-71
2021/10/26 08:32:12;;;;;;;9.07;2.20;;;;;;;15.81;70.55;100079.38;5085955;28;20016;-71
2021/10/26 08:34:50;;;;;;;13.52;2.42;;;;;;;16.45;68.40;100078.81;5104206;28;20118;-71
2021/10/26 08:37:17;;;;;;;11.90;2.20;;;;;;;16.91;67.55;100081.41;5104150;28;20020;-72
2021/10/26 08:39:42;;;;;;;6.93;1.98;;;;;;;17.33;65.99;100086.75;5103814;28;20056;-70
2021/10/26 08:42:14;;;;;;;10.88;2.83;;;;;;;17.70;64.04;100077.28;5104193;28;20020;-71
2021/10/26 08:44:41;;;;;;;7.50;1.92;;;;;;;17.91;61.54;100073.78;5104024;28;20024;-71
2021/10/26 08:47:08;;;;;;;7.65;2.55;;;;;;;18.10;61.67;100089.56;5103787;28;20020;-72
2021/10/26 08:49:34;;;;;;;12.43;2.45;;;;;;;18.61;60.67;100091.66;5104023;28;20379;-72
2021/10/26 08:52:05;;;;;;;11.07;2.47;;;;;;;18.83;57.49;100088.84;5103946;28;20425;-72
2021/10/26 08:54:30;;;;;;;15.03;2.63;;;;;;;18.81;57.55;100093.34;5103742;28;20103;-72
2021/10/26 08:56:56;;;;;;;10.52;2.10;;;;;;;18.87;56.85;100096.59;5103880;28;20347;-72
2021/10/26 08:59:21;;;;;;;11.00;3.13;;;;;;;18.92;55.58;100084.94;5103785;28;20027;-72
2021/10/26 09:01:52;;;;;;;18.15;3.40;;;;;;;18.96;54.24;100090.91;5103797;28;20050;-71
2021/10/26 09:04:18;;;;;;;15.40;2.78;;;;;;;18.88;54.09;100099.16;5103591;28;20024;-72
2021/10/26 09:06:53;;;;;;;11.40;1.90;;;;;;;18.58;54.66;100095.28;5103402;28;20020;-73
2021/10/26 09:09:21;;;;;;;13.52;2.08;;;;;;;18.17;54.74;100098.06;5104049;28;20106;-73
2021/10/26 09:17:53;;;;;;;6.95;1.83;;;;;;;16.75;57.90;100112.63;5103892;28;20039;-72
2021/10/26 09:20:23;;;;;;;11.02;2.42;;;;;;;16.82;58.04;100105.38;5103708;28;20024;-72
2021/10/26 09:22:55;;;;;;;10.52;2.10;;;;;;;16.72;56.65;100107.50;5103438;28;20087;-72
2021/10/26 09:25:32;;;;;;;;;;;;;;;16.65;57.63;100103.38;5103835;28;20050;-71
2021/10/26 09:28:17;;;;;;;13.82;2.00;;;;;;;16.97;57.69;100101.28;5103722;28;19904;-72
2021/10/26 09:31:01;;;;;;;9.20;1.83;;;;;;;17.29;56.71;100104.38;5119239;28;20012;-73
2021/10/26 09:33:36;;;;;;;11.27;2.25;;;;;;;17.54;56.33;100107.75;5103607;28;20114;-71
2021/10/26 09:36:20;;;;;;;13.85;2.63;;;;;;;17.77;55.48;100101.50;5119113;28;20054;-72
2021/10/26 09:38:45;;;;;;;12.32;2.40;;;;;;;17.97;53.94;100107.66;5103436;28;20038;-72
2021/10/26 09:41:11;;;;;;;11.50;2.63;;;;;;;18.35;52.84;100111.28;5102379;28;20028;-72
2021/10/26 09:43:36;;;;;;;13.30;2.38;;;;;;;18.93;50.69;100117.38;5103780;28;20036;-72
2021/10/26 09:46:03;;;;;;;7.32;2.00;;;;;;;19.06;49.95;100117.59;5103958;28;20423;-71
2021/10/26 09:48:34;;;;;;;12.85;2.83;;;;;;;19.16;49.81;100112.78;5103545;28;20103;-72
2021/10/26 09:51:09;;;;;;;7.13;1.88;;;;;;;18.54;49.17;100117.41;5103436;28;20024;-72
2021/10/26 09:53:36;;;;;;;15.02;2.60;;;;;;;17.42;51.43;100111.75;5103336;28;20422;-72
2021/10/26 09:56:04;;;;;;;20.15;4.32;;;;;;;16.65;53.51;100108.63;5103060;28;20074;-71
2021/10/26 09:58:32;;;;;;;6.38;2.00;;;;;;;16.02;55.20;100113.56;5103330;28;20054;-72
2021/10/26 10:01:06;;;;;;;11.05;2.80;;;;;;;15.17;57.43;100117.25;5103082;28;20035;-72
2021/10/26 10:03:31;;;;;;;12.75;3.10;;;;;;;14.69;59.47;100114.34;5085059;28;20483;-71
2021/10/26 10:06:05;;;;;;;17.98;3.75;;;;;;;14.92;60.80;100120.66;5103174;28;20031;-72
2021/10/26 10:08:39;;;;;;;14.70;3.38;;;;;;;15.08;60.25;100111.41;5085216;28;20368;-72
2021/10/26 10:11:07;;;;;;;17.00;3.40;;;;;;;14.96;60.26;100123.13;5103170;28;20017;-72
2021/10/26 10:13:57;;;;;;;13.55;3.28;;;;;;;15.07;61.12;100120.16;5103116;28;20549;-72
2021/10/26 10:16:28;;;;;;;16.85;3.42;;;;;;;15.54;59.60;100108.22;5103156;28;20035;-71
2021/10/26 10:18:54;;;;;;;9.27;2.80;;;;;;;16.11;58.82;100112.38;5103108;28;20054;-72
2021/10/26 10:21:23;;;;;;;12.63;2.85;;;;;;;16.75;57.07;100104.75;5118816;28;20024;-71
2021/10/26 10:23:50;;;;;;;16.92;3.13;;;;;;;17.51;56.09;100107.88;5103142;28;20059;-71
2021/10/26 10:26:29;;;;;;;14.40;3.13;;;;;;;18.17;53.87;100104.19;5102840;28;20032;-71
2021/10/26 10:28:56;;;;;;;14.55;2.30;;;;;;;18.20;53.18;100108.44;5102984;28;20026;-72
2021/10/26 10:31:25;;;;;;;10.63;2.33;;;;;;;18.35;52.97;100119.16;5103050;28;20046;-71
2021/10/26 10:33:54;;;;;;;10.90;2.95;;;;;;;18.50;52.11;100115.81;5103168;28;20414;-72
2021/10/26 10:36:22;;;;;;;11.05;2.33;;;;;;;18.89;51.94;100115.78;5106167;28;20016;-71
2021/10/26 10:38:48;;;;;;;16.60;3.15;;;;;;;19.44;50.79;100106.97;5088304;28;20028;-71
2021/10/26 10:41:32;;;;;;;13.93;2.97;;;;;;;19.85;48.77;100107.56;5106386;28;20024;-71
2021/10/26 10:44:03;;;;;;;18.02;2.80;;;;;;;20.01;47.66;100109.38;5106658;28;20039;-71
2021/10/26 10:46:43;;;;;;;15.05;3.22;;;;;;;20.02;46.70;100108.44;5106299;28;20083;-71
2021/10/26 10:49:24;;;;;;;9.48;2.35;;;;;;;20.04;46.72;100110.13;5106423;28;20359;-72
2021/10/26 10:52:03;;;;;;;11.55;2.47;;;;;;;19.99;46.63;100112.09;5106333;28;20024;-71
2021/10/26 10:54:38;;;;;;;14.25;3.45;;;;;;;20.11;47.17;100115.06;5106205;28;20020;-71
2021/10/26 10:57:39;;;;;;;8.52;2.13;;;;;;;20.26;45.78;100111.59;5106071;28;20076;-71
2021/10/26 11:00:12;;;;;;;10.18;2.55;;;;;;;19.87;44.86;100107.50;5105978;28;20020;-71
2021/10/26 11:02:40;;;;;;;10.00;2.58;;;;;;;19.43;46.54;100100.03;5105968;28;20050;-71
2021/10/26 11:05:05;;;;;;;12.80;2.67;;;;;;;19.36;47.83;100103.88;5105939;28;20441;-71
2021/10/26 11:07:42;;;;;;;7.88;2.35;;;;;;;19.59;46.63;100095.72;5105849;28;20027;-71
2021/10/26 11:10:13;;;;;;;13.20;2.85;;;;;;;19.34;46.72;100097.00;5105855;28;20016;-71
2021/10/26 11:12:40;;;;;;;13.63;3.05;;;;;;;18.92;47.28;100110.38;5105891;28;20080;-72
2021/10/26 11:15:08;;;;;;;10.80;3.10;;;;;;;18.57;47.98;100105.88;5105999;28;20035;-72
2021/10/26 11:17:39;;;;;;;7.10;1.58;;;;;;;18.19;49.08;100104.97;5105705;28;20027;-73
2021/10/26 11:20:08;;;;;;;12.60;2.50;;;;;;;17.91;48.93;100097.41;5105579;28;20039;-72
2021/10/26 11:22:45;;;;;;;11.70;2.47;;;;;;;17.18;50.57;100104.84;5105584;28;20076;-72
2021/10/26 11:25:41;;;;;;;9.68;2.28;;;;;;;16.40;51.99;100101.72;5105187;28;20070;-74
2021/10/26 11:28:13;;;;;;;21.02;4.30;;;;;;;15.92;53.57;100102.53;5078345;28;20062;-72
2021/10/26 11:30:44;;;;;;;16.20;3.13;;;;;;;15.53;55.20;100090.78;5105454;28;20020;-72